Time;durP1;ratioP1;P1;durP2;ratioP2;P2;SDS_P1;SDS_P2;PMS_P1;PMS_P2;Temp;Humidity;BMP_temperature;BMP_pressure;BME280_temperature;BME280_humidity;BME280_pressure;Samples;Min_cycle;Max_cycle;Signal;HPM_P1;HPM_P2
2020/05/03 00:00:06;;;;;;;4.4;3.8;;;;;;;;;;;;;
2020/05/03 00:02:30;;;;;;;4.8;3.7;;;;;;;;;;;;;
2020/05/03 00:04:55;;;;;;;4.3;3.6;;;;;;;;;;;;;
2020/05/03 00:07:20;;;;;;;4.7;3.5;;;;;;;;;;;;;
2020/05/03 00:09:45;;;;;;;5.5;4.1;;;;;;;;;;;;;
2020/05/03 00:12:10;;;;;;;6.6;4.7;;;;;;;;;;;;;
2020/05/03 00:14:36;;;;;;;6.5;4.5;;;;;;;;;;;;;
2020/05/03 00:17:01;;;;;;;5;4.1;;;;;;;;;;;;;
2020/05/03 00:19:26;;;;;;;5;4.1;;;;;;;;;;;;;
2020/05/03 00:21:51;;;;;;;5.4;4.1;;;;;;;;;;;;;
2020/05/03 00:24:16;;;;;;;5;3.9;;;;;;;;;;;;;
2020/05/03 00:26:41;;;;;;;7.2;6.5;;;;;;;;;;;;;
2020/05/03 00:29:07;;;;;;;7.7;6.5;;;;;;;;;;;;;
2020/05/03 00:31:32;;;;;;;6.3;4;;;;;;;;;;;;;
2020/05/03 00:33:57;;;;;;;5.7;4.5;;;;;;;;;;;;;
2020/05/03 00:36:22;;;;;;;4;2;;;;;;;;;;;;;
2020/05/03 00:38:47;;;;;;;3.3;1.4;;;;;;;;;;;;;
2020/05/03 00:41:12;;;;;;;1.9;1.4;;;;;;;;;;;;;
2020/05/03 00:43:37;;;;;;;2.5;1.6;;;;;;;;;;;;;
2020/05/03 00:46:03;;;;;;;2.3;1.6;;;;;;;;;;;;;
2020/05/03 00:48:28;;;;;;;2.2;1.3;;;;;;;;;;;;;
2020/05/03 00:50:53;;;;;;;3.1;1.6;;;;;;;;;;;;;
2020/05/03 00:53:18;;;;;;;1.5;1.3;;;;;;;;;;;;;
2020/05/03 00:55:43;;;;;;;2.7;1.2;;;;;;;;;;;;;
2020/05/03 00:58:08;;;;;;;1.5;1.2;;;;;;;;;;;;;
2020/05/03 01:00:33;;;;;;;3.1;2.1;;;;;;;;;;;;;
2020/05/03 01:02:58;;;;;;;2.5;1.9;;;;;;;;;;;;;
2020/05/03 01:05:24;;;;;;;2.8;2.4;;;;;;;;;;;;;
2020/05/03 01:07:49;;;;;;;4;2.7;;;;;;;;;;;;;
2020/05/03 01:10:14;;;;;;;3.3;2.9;;;;;;;;;;;;;
2020/05/03 01:12:39;;;;;;;3.5;2.6;;;;;;;;;;;;;
2020/05/03 01:15:04;;;;;;;3.4;1.9;;;;;;;;;;;;;
2020/05/03 01:17:29;;;;;;;2.8;2;;;;;;;;;;;;;
2020/05/03 01:19:55;;;;;;;2.5;1.8;;;;;;;;;;;;;
2020/05/03 01:22:20;;;;;;;1.8;1.3;;;;;;;;;;;;;
2020/05/03 01:24:45;;;;;;;2.4;1.4;;;;;;;;;;;;;
2020/05/03 01:27:10;;;;;;;2.4;1.8;;;;;;;;;;;;;
2020/05/03 01:29:35;;;;;;;2.1;1.9;;;;;;;;;;;;;
2020/05/03 01:32:00;;;;;;;3;2.2;;;;;;;;;;;;;
2020/05/03 01:34:26;;;;;;;3.2;2.3;;;;;;;;;;;;;
2020/05/03 01:36:52;;;;;;;2.4;2.2;;;;;;;;;;;;;
2020/05/03 01:39:17;;;;;;;3.1;2.6;;;;;;;;;;;;;
2020/05/03 01:41:42;;;;;;;3.1;1.8;;;;;;;;;;;;;
2020/05/03 01:44:07;;;;;;;3.3;1.8;;;;;;;;;;;;;
2020/05/03 01:46:32;;;;;;;2.9;1.8;;;;;;;;;;;;;
2020/05/03 01:49:00;;;;;;;2.3;1.9;;;;;;;;;;;;;
2020/05/03 01:51:25;;;;;;;2.3;2.1;;;;;;;;;;;;;
2020/05/03 01:54:01;;;;;;;3.5;2.1;;;;;;;;;;;;;
2020/05/03 02:05:54;;;;;;;1.8;1.4;;;;;;;;;;;;;
2020/05/03 02:10:53;;;;;;;1.5;1.3;;;;;;;;;;;;;
2020/05/03 02:17:59;;;;;;;3.5;1.5;;;;;;;;;;;;;
2020/05/03 02:22:51;;;;;;;2.5;1.4;;;;;;;;;;;;;
2020/05/03 02:25:15;;;;;;;1.7;1.5;;;;;;;;;;;;;
2020/05/03 02:27:40;;;;;;;2.7;1.7;;;;;;;;;;;;;
2020/05/03 02:30:06;;;;;;;2.4;1.8;;;;;;;;;;;;;
2020/05/03 02:32:31;;;;;;;2.1;1.7;;;;;;;;;;;;;
2020/05/03 02:34:56;;;;;;;2.2;1.8;;;;;;;;;;;;;
2020/05/03 02:37:22;;;;;;;2;1.7;;;;;;;;;;;;;
2020/05/03 02:39:47;;;;;;;4.4;1.9;;;;;;;;;;;;;
2020/05/03 02:42:12;;;;;;;2.2;1.7;;;;;;;;;;;;;
2020/05/03 02:44:37;;;;;;;2.3;1.7;;;;;;;;;;;;;
2020/05/03 02:47:02;;;;;;;2.5;2.1;;;;;;;;;;;;;
2020/05/03 02:49:32;;;;;;;2.7;2.2;;;;;;;;;;;;;
2020/05/03 02:52:15;;;;;;;3;2.4;;;;;;;;;;;;;
2020/05/03 02:54:19;;;;;;;4.2;3.2;;;;;;;;;;;;;
2020/05/03 02:56:47;;;;;;;4;3.6;;;;;;;;;;;;;
2020/05/03 02:59:09;;;;;;;5;3;;;;;;;;;;;;;
2020/05/03 03:01:33;;;;;;;3.3;3;;;;;;;;;;;;;
2020/05/03 03:03:58;;;;;;;3.8;3.2;;;;;;;;;;;;;
2020/05/03 03:06:24;;;;;;;4.8;3.5;;;;;;;;;;;;;
2020/05/03 03:08:49;;;;;;;4.7;4;;;;;;;;;;;;;
2020/05/03 03:11:14;;;;;;;3.5;3.2;;;;;;;;;;;;;
2020/05/03 03:13:39;;;;;;;3.3;2.6;;;;;;;;;;;;;
2020/05/03 03:16:04;;;;;;;3.6;2.5;;;;;;;;;;;;;
2020/05/03 03:18:34;;;;;;;4;2.8;;;;;;;;;;;;;
2020/05/03 03:20:56;;;;;;;3.5;3;;;;;;;;;;;;;
2020/05/03 03:23:20;;;;;;;3.3;2.7;;;;;;;;;;;;;
2020/05/03 03:25:52;;;;;;;4.5;2.8;;;;;;;;;;;;;
2020/05/03 03:28:14;;;;;;;2.9;2.6;;;;;;;;;;;;;
2020/05/03 03:31:23;;;;;;;2.8;2.5;;;;;;;;;;;;;
2020/05/03 03:33:23;;;;;;;3.3;2.7;;;;;;;;;;;;;
2020/05/03 03:35:30;;;;;;;3.2;2.7;;;;;;;;;;;;;
2020/05/03 03:38:08;;;;;;;3.3;2.6;;;;;;;;;;;;;
2020/05/03 03:40:18;;;;;;;3.2;2.8;;;;;;;;;;;;;
2020/05/03 03:42:42;;;;;;;3.4;2.9;;;;;;;;;;;;;
2020/05/03 03:45:07;;;;;;;4.5;2.8;;;;;;;;;;;;;
2020/05/03 03:47:32;;;;;;;3.6;2.9;;;;;;;;;;;;;
2020/05/03 03:49:57;;;;;;;2.9;2.7;;;;;;;;;;;;;
2020/05/03 03:52:22;;;;;;;3.2;2.9;;;;;;;;;;;;;
2020/05/03 03:54:50;;;;;;;4.2;2.8;;;;;;;;;;;;;
2020/05/03 03:57:13;;;;;;;5.7;3;;;;;;;;;;;;;
2020/05/03 03:59:38;;;;;;;4.3;2.8;;;;;;;;;;;;;
2020/05/03 04:02:29;;;;;;;3.1;2.6;;;;;;;4.47;86.30078;939.2;;;;
2020/05/03 04:04:54;;;;;;;3.3;2.5;;;;;;;4.5;86.20313;939.2885;;;;
2020/05/03 04:07:20;;;;;;;3.5;2.5;;;;;;;4.32;86.13477;939.3358;;;;
2020/05/03 04:09:45;;;;;;;3.2;2.7;;;;;;;4.21;86.6416;939.4084;;;;
2020/05/03 04:12:10;;;;;;;3.7;2.6;;;;;;;4.32;86.83203;939.3964;;;;
2020/05/03 04:14:35;;;;;;;3.4;2.9;;;;;;;4.34;86.62207;939.4768;;;;
2020/05/03 04:17:04;;;;;;;4.7;2.9;;;;;;;4.31;86.58105;939.5064;;;;
2020/05/03 04:19:29;;;;;;;2.7;2.5;;;;;;;4.4;86.09277;939.5057;;;;
2020/05/03 04:21:58;;;;;;;3.9;2.5;;;;;;;4.44;85.78906;939.5609;;;;
2020/05/03 04:26:43;;;;;;;3.7;2.2;;;;;;;4.33;85.58496;939.5758;;;;
2020/05/03 04:29:09;;;;;;;2.8;2.3;;;;;;;4.33;85.87598;939.6096;;;;
2020/05/03 04:31:43;;;;;;;2.5;2;;;;;;;4.39;85.72168;939.585;;;;
2020/05/03 04:34:12;;;;;;;3;1.9;;;;;;;4.27;85.91016;939.5698;;;;
2020/05/03 04:36:37;;;;;;;2.6;2.2;;;;;;;4.1;86.29297;939.5928;;;;
2020/05/03 04:38:58;;;;;;;3.3;2.3;;;;;;;4.1;87.20215;939.6447;;;;
2020/05/03 04:41:20;;;;;;;2.1;1.9;;;;;;;4.21;86.65234;939.634;;;;
2020/05/03 04:43:44;;;;;;;2.8;2.2;;;;;;;4.41;86.69336;939.6608;;;;
2020/05/03 04:46:13;;;;;;;2.1;1.9;;;;;;;4.51;85.82227;939.6752;;;;
2020/05/03 04:48:31;;;;;;;2.5;2.2;;;;;;;4.36;85.83984;939.6376;;;;
2020/05/03 04:50:57;;;;;;;3.1;2.7;;;;;;;4.42;86.62695;939.7045;;;;
2020/05/03 04:53:21;;;;;;;4.8;3.3;;;;;;;4.55;85.58301;939.7241;;;;
2020/05/03 04:55:46;;;;;;;3.6;2.6;;;;;;;4.55;85.69824;939.6508;;;;
2020/05/03 04:58:12;;;;;;;2.6;1.9;;;;;;;4.44;84.68359;939.8123;;;;
2020/05/03 05:00:37;;;;;;;2.5;1.8;;;;;;;4.37;84.82715;939.8035;;;;
2020/05/03 05:03:02;;;;;;;2.1;1.7;;;;;;;4.34;85.26074;939.8419;;;;
2020/05/03 05:05:28;;;;;;;2;1.8;;;;;;;4.43;86.13574;939.7926;;;;
2020/05/03 05:07:53;;;;;;;1.9;1.7;;;;;;;4.28;85.28125;939.801;;;;
2020/05/03 05:10:19;;;;;;;4.4;2.2;;;;;;;4.28;85.33789;939.8508;;;;
2020/05/03 05:12:47;;;;;;;2.3;1.8;;;;;;;4.43;85.39063;939.8153;;;;
2020/05/03 05:15:12;;;;;;;3.1;2.3;;;;;;;4.57;85.14941;939.7656;;;;
2020/05/03 05:17:36;;;;;;;2.4;2.2;;;;;;;4.63;84.5166;939.8286;;;;
2020/05/03 05:20:01;;;;;;;3.1;2.3;;;;;;;4.77;84.83984;939.8666;;;;
2020/05/03 05:22:26;;;;;;;2.6;2;;;;;;;4.88;84.21973;939.8979;;;;
2020/05/03 05:24:51;;;;;;;2.5;2.3;;;;;;;5.03;84.39648;939.9026;;;;
2020/05/03 05:27:16;;;;;;;1.8;1.5;;;;;;;6.51;79.31445;939.9601;;;;
2020/05/03 05:29:51;;;;;;;1.5;1.2;;;;;;;8.65;71.25293;939.9419;;;;
2020/05/03 05:32:07;;;;;;;1.5;1.1;;;;;;;10.61;63.82324;939.9796;;;;
2020/05/03 05:34:32;;;;;;;1.2;1;;;;;;;12.14;57.95313;939.9348;;;;
2020/05/03 05:36:57;;;;;;;1.5;0.9;;;;;;;12.4;55.0625;939.9893;;;;
2020/05/03 05:39:22;;;;;;;1.1;0.8;;;;;;;10.83;58.37207;940.0747;;;;
2020/05/03 05:41:48;;;;;;;2.4;1.1;;;;;;;9.7;63.43945;940.1125;;;;
2020/05/03 05:44:14;;;;;;;1.9;1.1;;;;;;;9;66.19141;940.0781;;;;
2020/05/03 05:46:39;;;;;;;1.9;1.1;;;;;;;8.13;69.09961;940.2101;;;;
2020/05/03 05:49:04;;;;;;;1.7;1.1;;;;;;;7.28;72.77246;940.2521;;;;
2020/05/03 05:51:31;;;;;;;2.5;1.3;;;;;;;7.01;74.90039;940.2742;;;;
2020/05/03 05:53:56;;;;;;;2.2;1.3;;;;;;;6.92;75.59668;940.2857;;;;
2020/05/03 05:56:22;;;;;;;1.7;1.2;;;;;;;7.02;75.93262;940.3123;;;;
2020/05/03 05:58:47;;;;;;;2.9;1.8;;;;;;;6.68;75.95117;940.3717;;;;
2020/05/03 06:01:14;;;;;;;3;1.8;;;;;;;6.68;77.5127;940.3495;;;;
2020/05/03 06:03:39;;;;;;;3.1;2;;;;;;;6.6;77.84863;940.4214;;;;
2020/05/03 06:06:05;;;;;;;3.2;2.1;;;;;;;6.61;78.21289;940.3749;;;;
2020/05/03 06:08:31;;;;;;;4.5;2.7;;;;;;;6.59;77.8584;940.437;;;;
2020/05/03 06:10:56;;;;;;;3.3;2.4;;;;;;;6.67;77.79297;940.4417;;;;
2020/05/03 06:13:22;;;;;;;3.5;2.4;;;;;;;6.71;78.05176;940.4059;;;;
2020/05/03 06:15:47;;;;;;;5.3;3.3;;;;;;;6.64;78.4668;940.407;;;;
2020/05/03 06:18:13;;;;;;;2.2;1.6;;;;;;;6.54;79.72656;940.4554;;;;
2020/05/03 06:20:38;;;;;;;2.1;1.5;;;;;;;6.48;79.70508;940.4078;;;;
2020/05/03 06:23:04;;;;;;;3.5;1.4;;;;;;;6.56;80.20703;940.4465;;;;
2020/05/03 06:25:29;;;;;;;2.2;1.5;;;;;;;6.7;79.31543;940.4135;;;;
2020/05/03 06:27:55;;;;;;;2.7;1.8;;;;;;;6.86;79.25488;940.5391;;;;
2020/05/03 06:30:20;;;;;;;1.9;1.5;;;;;;;7.11;78.18066;940.4977;;;;
2020/05/03 06:32:47;;;;;;;1.5;1.4;;;;;;;7.82;77.82031;940.4741;;;;
2020/05/03 06:35:12;;;;;;;2.4;1.1;;;;;;;10.24;69.00684;940.4908;;;;
2020/05/03 06:37:38;;;;;;;2.9;1.1;;;;;;;13.05;59.7168;940.4495;;;;
2020/05/03 06:40:04;;;;;;;1.2;1;;;;;;;14.54;55.93457;940.4233;;;;
2020/05/03 06:42:29;;;;;;;2.9;1.1;;;;;;;16.96;48.87402;940.449;;;;
2020/05/03 06:44:55;;;;;;;1.6;1;;;;;;;18.24;41.45215;940.4155;;;;
2020/05/03 06:47:20;;;;;;;2.5;1.1;;;;;;;17.9;42.5;940.4437;;;;
2020/05/03 06:49:46;;;;;;;1.9;1.4;;;;;;;18.35;40.33398;940.4453;;;;
2020/05/03 06:52:11;;;;;;;1.3;1;;;;;;;19.45;40.22559;940.4433;;;;
2020/05/03 06:54:37;;;;;;;2.6;0.9;;;;;;;19.51;37.42285;940.4241;;;;
2020/05/03 06:57:02;;;;;;;1.1;0.7;;;;;;;21.01;35.80762;940.3828;;;;
2020/05/03 06:59:29;;;;;;;1.2;0.6;;;;;;;19.96;35.67578;940.4481;;;;
2020/05/03 07:01:54;;;;;;;1.7;0.6;;;;;;;20.7;34.625;940.3845;;;;
2020/05/03 07:04:20;;;;;;;2.5;0.8;;;;;;;20.28;34.60449;940.4119;;;;
2020/05/03 07:06:45;;;;;;;1.7;0.7;;;;;;;20.63;34.12891;940.3483;;;;
2020/05/03 07:09:10;;;;;;;2;0.7;;;;;;;19.98;36.10938;940.3797;;;;
2020/05/03 07:11:36;;;;;;;1.9;0.7;;;;;;;19.65;35.51074;940.3215;;;;
2020/05/03 07:14:01;;;;;;;0.7;0.7;;;;;;;20.61;35.56543;940.3152;;;;
2020/05/03 07:16:28;;;;;;;1.3;0.8;;;;;;;22.78;33.12109;940.3477;;;;
2020/05/03 07:18:53;;;;;;;1;0.8;;;;;;;22.72;31.14453;940.3375;;;;
2020/05/03 07:21:20;;;;;;;1.3;0.8;;;;;;;23.53;31.82422;940.2996;;;;
2020/05/03 07:23:45;;;;;;;0.9;0.7;;;;;;;24.21;29.6582;940.2676;;;;
2020/05/03 07:26:12;;;;;;;1.9;0.8;;;;;;;25.37;29.23926;940.2233;;;;
2020/05/03 07:28:38;;;;;;;1.2;0.5;;;;;;;25.98;28.79492;940.2142;;;;
2020/05/03 07:31:05;;;;;;;1.7;0.9;;;;;;;24.71;26.66211;940.1334;;;;
2020/05/03 07:33:30;;;;;;;0.9;0.8;;;;;;;23.22;29.65137;940.1786;;;;
2020/05/03 07:35:55;;;;;;;2.5;0.9;;;;;;;22.85;30.54297;940.1339;;;;
2020/05/03 07:38:23;;;;;;;1.7;0.9;;;;;;;22.93;30.86523;940.1685;;;;
2020/05/03 07:40:48;;;;;;;1.6;0.8;;;;;;;24.36;28.86719;940.1231;;;;
2020/05/03 07:43:18;;;;;;;1.6;0.8;;;;;;;22.32;31.20996;940.1036;;;;
2020/05/03 07:45:43;;;;;;;1.6;0.9;;;;;;;21.14;34.75293;940.084;;;;
2020/05/03 07:48:10;;;;;;;2.5;0.8;;;;;;;22.45;33.54199;940.0564;;;;
2020/05/03 07:50:35;;;;;;;2.2;0.9;;;;;;;23.79;29.05371;940.0673;;;;
2020/05/03 07:53:00;;;;;;;1.4;0.6;;;;;;;24.82;29.86426;940.0156;;;;
2020/05/03 07:55:25;;;;;;;1.5;0.9;;;;;;;26.47;26.66016;939.9853;;;;
2020/05/03 07:57:51;;;;;;;2.1;1;;;;;;;25.54;26.96973;940.0066;;;;
2020/05/03 08:00:16;;;;;;;2.7;0.9;;;;;;;23.41;29.4873;940.0461;;;;
2020/05/03 08:02:41;;;;;;;1.8;0.9;;;;;;;25.93;29.31152;940.0266;;;;
2020/05/03 08:05:06;;;;;;;1.4;0.7;;;;;;;25;29.65137;940.0158;;;;
2020/05/03 08:07:32;;;;;;;1.7;0.8;;;;;;;25.37;26.80664;939.9314;;;;
2020/05/03 08:09:57;;;;;;;3.2;0.9;;;;;;;26.58;25.86133;939.9456;;;;
2020/05/03 08:12:24;;;;;;;1.5;0.7;;;;;;;25.92;22.7373;939.9888;;;;
2020/05/03 08:14:49;;;;;;;1.6;0.7;;;;;;;26.42;23.67383;939.9941;;;;
2020/05/03 08:17:16;;;;;;;2.2;0.7;;;;;;;27.59;21.56445;940.0533;;;;
2020/05/03 08:19:41;;;;;;;2.9;0.8;;;;;;;27.51;23.95703;940.0056;;;;
2020/05/03 08:22:08;;;;;;;2.4;0.9;;;;;;;25.84;25.25098;940.0229;;;;
2020/05/03 08:24:33;;;;;;;1.5;0.7;;;;;;;25.28;24.13281;940.0527;;;;
2020/05/03 08:27:00;;;;;;;1.7;0.8;;;;;;;25.36;25.97949;940.0219;;;;
2020/05/03 08:29:25;;;;;;;2;0.8;;;;;;;24.23;26.05566;940.019;;;;
2020/05/03 08:31:52;;;;;;;2.5;0.8;;;;;;;21.99;28.40918;939.97;;;;
2020/05/03 08:34:17;;;;;;;1.3;0.7;;;;;;;22.92;26.24902;940.0087;;;;
2020/05/03 08:36:42;;;;;;;2.3;0.8;;;;;;;22.54;27.85742;939.9974;;;;
2020/05/03 08:39:09;;;;;;;2.7;1;;;;;;;22.38;29.2666;940.0927;;;;
2020/05/03 08:41:34;;;;;;;1.6;0.8;;;;;;;21.39;30.34863;940.0634;;;;
2020/05/03 08:44:00;;;;;;;1.7;0.9;;;;;;;19.96;30.18066;940.0334;;;;
2020/05/03 08:46:26;;;;;;;2.5;0.9;;;;;;;18.46;34.79883;940.1306;;;;
2020/05/03 08:48:51;;;;;;;2.3;1;;;;;;;17.56;35.71387;940.0887;;;;
2020/05/03 08:51:17;;;;;;;2.3;0.9;;;;;;;17.21;41.06445;940.0101;;;;
2020/05/03 08:53:42;;;;;;;2.5;1;;;;;;;17.56;38.87012;939.9978;;;;
2020/05/03 08:56:08;;;;;;;1.6;0.8;;;;;;;18.24;41.24219;939.9916;;;;
2020/05/03 08:58:34;;;;;;;1.8;1;;;;;;;18.43;38.52832;939.9241;;;;
2020/05/03 09:01:01;;;;;;;2.8;0.9;;;;;;;18.57;39.21484;939.94;;;;
2020/05/03 09:03:26;;;;;;;2;1;;;;;;;18.76;39.40625;939.962;;;;
2020/05/03 09:08:23;;;;;;;1;0.9;;;;;;;19.32;37.63965;939.9701;;;;
2020/05/03 09:10:54;;;;;;;1.6;0.7;;;;;;;19.69;33.1582;939.9991;;;;
2020/05/03 09:13:09;;;;;;;2.3;0.8;;;;;;;18.82;34.22168;940.0158;;;;
2020/05/03 09:15:34;;;;;;;2.1;0.8;;;;;;;18.34;31.29004;939.9907;;;;
2020/05/03 09:18:00;;;;;;;2.2;0.8;;;;;;;18.13;35.83008;940.0142;;;;
2020/05/03 09:20:26;;;;;;;1.9;0.7;;;;;;;17.35;37.01953;939.9425;;;;
2020/05/03 09:22:52;;;;;;;2.2;0.8;;;;;;;16.85;39.09766;939.9766;;;;
2020/05/03 09:25:18;;;;;;;2.4;0.9;;;;;;;16.85;38.84277;939.9331;;;;
2020/05/03 09:27:44;;;;;;;1.9;0.9;;;;;;;17.24;35.44434;939.8869;;;;
2020/05/03 09:30:09;;;;;;;1.7;0.9;;;;;;;17.5;39.85156;939.902;;;;
2020/05/03 09:32:35;;;;;;;1.3;0.7;;;;;;;18.04;36.64844;939.8778;;;;
2020/05/03 09:35:01;;;;;;;2.3;0.8;;;;;;;18.68;36.45605;939.9474;;;;
2020/05/03 09:37:29;;;;;;;1.8;0.7;;;;;;;19.09;33.75391;939.9416;;;;
2020/05/03 09:39:54;;;;;;;1.5;0.8;;;;;;;19.19;34.84473;940.0105;;;;
2020/05/03 09:42:21;;;;;;;2.2;0.9;;;;;;;18.33;34.61426;939.9819;;;;
2020/05/03 09:44:46;;;;;;;3.1;0.7;;;;;;;17.87;33.17285;939.9617;;;;
2020/05/03 09:47:11;;;;;;;1.1;0.7;;;;;;;17.92;34.89551;939.9567;;;;
2020/05/03 09:49:36;;;;;;;2;0.8;;;;;;;17.13;36.65332;940.0111;;;;
2020/05/03 09:52:04;;;;;;;1.7;0.8;;;;;;;17.61;38.37598;939.9705;;;;
2020/05/03 09:54:29;;;;;;;1.5;0.7;;;;;;;17.66;38.20605;939.9483;;;;
2020/05/03 09:56:56;;;;;;;2;0.7;;;;;;;17.96;35.82813;939.9175;;;;
2020/05/03 09:59:21;;;;;;;1.4;0.7;;;;;;;17.69;33.63477;939.8039;;;;
2020/05/03 10:01:48;;;;;;;1.9;0.8;;;;;;;17.67;34.49219;939.8981;;;;
2020/05/03 10:04:13;;;;;;;1.3;0.7;;;;;;;17.44;35.95996;939.8755;;;;
2020/05/03 10:06:43;;;;;;;2.1;0.7;;;;;;;17.21;38.42188;939.9448;;;;
2020/05/03 10:09:08;;;;;;;2.2;0.8;;;;;;;17.25;36.47754;939.9447;;;;
2020/05/03 10:11:34;;;;;;;1.9;0.6;;;;;;;18.18;37.39063;939.9012;;;;
2020/05/03 10:13:59;;;;;;;2.3;0.8;;;;;;;18.24;33.97949;939.9135;;;;
2020/05/03 10:16:27;;;;;;;2;0.5;;;;;;;19.39;37.00488;939.9224;;;;
2020/05/03 10:18:52;;;;;;;1.7;0.7;;;;;;;20.89;33.26074;939.8817;;;;
2020/05/03 10:21:17;;;;;;;1.8;0.6;;;;;;;21.18;30.88379;939.7784;;;;
2020/05/03 10:23:44;;;;;;;2.7;0.7;;;;;;;19.84;33.33301;939.7818;;;;
2020/05/03 10:26:09;;;;;;;2.6;0.7;;;;;;;20.49;35.89355;939.7286;;;;
2020/05/03 10:28:34;;;;;;;1.5;0.6;;;;;;;20.93;31.40527;939.6951;;;;
2020/05/03 10:31:00;;;;;;;1.1;0.6;;;;;;;21.35;31.33984;939.5691;;;;
2020/05/03 10:33:25;;;;;;;1.3;0.7;;;;;;;21.42;32.32813;939.5636;;;;
2020/05/03 10:35:50;;;;;;;1.7;0.7;;;;;;;21.95;29.78906;939.5211;;;;
2020/05/03 10:38:15;;;;;;;2;0.6;;;;;;;22.31;29.12109;939.428;;;;
2020/05/03 10:40:40;;;;;;;0.6;0.5;;;;;;;20.94;28.94922;939.3712;;;;
2020/05/03 10:43:05;;;;;;;2.1;0.7;;;;;;;20.91;32.1748;939.4601;;;;
2020/05/03 10:45:31;;;;;;;1.3;0.6;;;;;;;20.89;32.48926;939.3822;;;;
2020/05/03 10:47:56;;;;;;;1.1;0.6;;;;;;;21.67;30.63672;939.3961;;;;
2020/05/03 10:50:21;;;;;;;1.3;0.6;;;;;;;22.55;30.19336;939.4233;;;;
2020/05/03 10:52:46;;;;;;;1.1;0.6;;;;;;;23.26;31.09961;939.4;;;;
2020/05/03 10:55:11;;;;;;;3;0.6;;;;;;;23.9;28.70801;939.3734;;;;
2020/05/03 10:57:36;;;;;;;2.4;0.6;;;;;;;24.1;27.86133;939.2136;;;;
2020/05/03 11:00:03;;;;;;;2.3;0.7;;;;;;;23.15;25.70996;939.3127;;;;
2020/05/03 11:02:26;;;;;;;3.7;0.7;;;;;;;21.23;28.91016;939.1705;;;;
2020/05/03 11:04:51;;;;;;;2.2;0.6;;;;;;;21.24;31.97559;939.2255;;;;
2020/05/03 11:07:17;;;;;;;1.5;0.7;;;;;;;21.36;30.06543;939.2227;;;;
2020/05/03 11:09:41;;;;;;;1;0.5;;;;;;;21.61;31.60547;939.1739;;;;
2020/05/03 11:12:07;;;;;;;1.2;0.5;;;;;;;21.78;29.16895;939.1906;;;;
2020/05/03 11:14:32;;;;;;;1.1;0.5;;;;;;;22.21;28.64551;939.1895;;;;
2020/05/03 11:16:57;;;;;;;0.8;0.5;;;;;;;22.86;28.81738;939.1858;;;;
2020/05/03 11:19:26;;;;;;;1.3;0.6;;;;;;;23.37;26.41699;939.1722;;;;
2020/05/03 11:21:51;;;;;;;1.1;0.5;;;;;;;23.57;24.94629;939.0984;;;;
2020/05/03 11:24:16;;;;;;;1;0.5;;;;;;;22.79;26.40527;939.0717;;;;
2020/05/03 11:26:42;;;;;;;0.8;0.6;;;;;;;23.25;26.05664;939.0006;;;;
2020/05/03 11:29:08;;;;;;;1.9;0.5;;;;;;;23.28;27.44531;938.9853;;;;
2020/05/03 11:31:33;;;;;;;0.9;0.5;;;;;;;23.54;24.88574;939.0739;;;;
2020/05/03 11:34:00;;;;;;;3.4;0.4;;;;;;;24.05;26.33984;939.0739;;;;
2020/05/03 11:36:25;;;;;;;1.1;0.5;;;;;;;24.25;26.15039;939.0838;;;;
2020/05/03 11:38:51;;;;;;;1.3;0.6;;;;;;;24.35;26.22754;939.0556;;;;
2020/05/03 11:41:16;;;;;;;1.8;0.5;;;;;;;24.16;24.60254;938.9751;;;;
2020/05/03 11:43:42;;;;;;;1.5;0.5;;;;;;;24.12;26.07227;938.9612;;;;
2020/05/03 11:46:07;;;;;;;2.8;0.5;;;;;;;24.44;26.47949;938.9748;;;;
2020/05/03 11:48:32;;;;;;;1.2;0.5;;;;;;;24.74;23.82129;939.0025;;;;
2020/05/03 11:50:57;;;;;;;1.3;0.6;;;;;;;23.64;24.99805;939.0273;;;;
2020/05/03 11:53:24;;;;;;;1.1;0.6;;;;;;;23.54;25.74414;939.0472;;;;
2020/05/03 11:55:49;;;;;;;2;0.6;;;;;;;23.91;26.20117;939.0731;;;;
2020/05/03 11:58:15;;;;;;;1.7;0.7;;;;;;;23;26.92383;939.1408;;;;
2020/05/03 12:00:40;;;;;;;1.8;0.5;;;;;;;22.49;26.75098;939.1481;;;;
2020/05/03 12:03:06;;;;;;;2;0.6;;;;;;;21.89;29.63281;939.1696;;;;
2020/05/03 12:05:31;;;;;;;1.2;0.5;;;;;;;21.52;28.37891;939.184;;;;
2020/05/03 12:07:56;;;;;;;1.4;0.6;;;;;;;21.06;29.29688;939.155;;;;
2020/05/03 12:10:21;;;;;;;1.4;0.7;;;;;;;20.76;30.28223;939.2003;;;;
2020/05/03 12:12:49;;;;;;;1.3;0.5;;;;;;;20.33;30.32324;939.0809;;;;
2020/05/03 12:15:14;;;;;;;1.1;0.7;;;;;;;20.24;32.29004;939.1021;;;;
2020/05/03 12:17:42;;;;;;;2.6;0.6;;;;;;;19.94;31.68457;939.1027;;;;
2020/05/03 12:20:07;;;;;;;1.1;0.5;;;;;;;19.57;31.45996;939.0789;;;;
2020/05/03 12:22:32;;;;;;;1;0.5;;;;;;;19.21;32.24902;939.159;;;;
2020/05/03 12:25:00;;;;;;;2.4;0.6;;;;;;;18.88;33.46973;939.1223;;;;
2020/05/03 12:27:25;;;;;;;1.5;0.7;;;;;;;18.68;32.76855;939.0883;;;;
2020/05/03 12:29:52;;;;;;;1.2;0.6;;;;;;;18.62;32.90332;939.0994;;;;
2020/05/03 12:32:21;;;;;;;1.7;0.6;;;;;;;18.77;34.97559;938.9734;;;;
2020/05/03 12:34:46;;;;;;;1.4;0.7;;;;;;;18.75;33.57715;939.048;;;;
2020/05/03 12:37:12;;;;;;;0.9;0.5;;;;;;;18.63;33.84668;939.0006;;;;
2020/05/03 12:39:38;;;;;;;1.6;0.7;;;;;;;18.5;33.91895;939.0275;;;;
2020/05/03 12:42:04;;;;;;;2.1;0.8;;;;;;;18.53;33.2002;939.0996;;;;
2020/05/03 12:44:30;;;;;;;2;0.6;;;;;;;18.62;34.82324;939.1003;;;;
2020/05/03 12:46:55;;;;;;;1.4;0.6;;;;;;;18.95;33.37109;939.0386;;;;
2020/05/03 12:49:21;;;;;;;3;0.7;;;;;;;19.13;33.4082;939.0744;;;;
2020/05/03 12:51:47;;;;;;;2;0.6;;;;;;;18.9;34.93848;939.051;;;;
2020/05/03 12:54:13;;;;;;;1.4;0.6;;;;;;;18.74;33.71484;939.1105;;;;
2020/05/03 12:56:40;;;;;;;1;0.6;;;;;;;18.72;32.05078;939.1722;;;;
2020/05/03 12:59:05;;;;;;;1.3;0.6;;;;;;;18.52;32.57031;939.1676;;;;
2020/05/03 13:01:30;;;;;;;1.8;0.7;;;;;;;18.42;34.12207;939.1646;;;;
2020/05/03 13:03:56;;;;;;;1.1;0.6;;;;;;;18.58;35.43652;939.1728;;;;
2020/05/03 13:06:23;;;;;;;1.3;0.6;;;;;;;18.45;33.70508;939.202;;;;
2020/05/03 13:08:48;;;;;;;2.3;0.7;;;;;;;18.26;35.14355;939.1947;;;;
2020/05/03 13:11:13;;;;;;;2;0.6;;;;;;;18.08;34.32715;939.2073;;;;
2020/05/03 13:13:40;;;;;;;0.8;0.5;;;;;;;17.75;35.64844;939.1489;;;;
2020/05/03 13:16:05;;;;;;;3.6;0.7;;;;;;;17.6;37.67773;939.1105;;;;
2020/05/03 13:18:30;;;;;;;2.2;0.6;;;;;;;17.53;37.98535;939.1536;;;;
2020/05/03 13:20:59;;;;;;;1.6;0.6;;;;;;;17.56;35.88867;939.0653;;;;
2020/05/03 13:23:23;;;;;;;0.9;0.5;;;;;;;17.53;37.40527;939.0536;;;;
2020/05/03 13:25:48;;;;;;;0.9;0.5;;;;;;;17.47;36.93652;939.0305;;;;
2020/05/03 13:28:13;;;;;;;1.5;0.7;;;;;;;17.39;37.50977;939.0201;;;;
2020/05/03 13:30:38;;;;;;;2.1;0.7;;;;;;;17.35;37.80762;939.0192;;;;
2020/05/03 13:33:04;;;;;;;1.1;0.6;;;;;;;17.3;38.02441;938.8502;;;;
2020/05/03 13:35:29;;;;;;;0.7;0.4;;;;;;;17.19;37.5625;938.9238;;;;
2020/05/03 13:37:55;;;;;;;2.8;0.7;;;;;;;17.3;37.91992;939.0569;;;;
2020/05/03 13:40:20;;;;;;;1.7;0.7;;;;;;;17.34;38.53809;938.9726;;;;
2020/05/03 13:45:10;;;;;;;1.1;0.6;;;;;;;17.43;37.75586;938.9571;;;;
2020/05/03 13:47:35;;;;;;;1.3;0.5;;;;;;;17.32;37.58496;938.8481;;;;
2020/05/03 13:54:51;;;;;;;1.3;0.6;;;;;;;17.34;38.54883;938.8834;;;;
2020/05/03 13:57:19;;;;;;;2.4;0.5;;;;;;;17.38;37.69434;938.9084;;;;
2020/05/03 13:59:44;;;;;;;1.9;0.6;;;;;;;17.46;39.03516;938.8873;;;;
2020/05/03 14:02:10;;;;;;;1.1;0.6;;;;;;;17.56;37.07129;938.8488;;;;
2020/05/03 14:04:35;;;;;;;1.1;0.7;;;;;;;17.69;38.12695;938.7989;;;;
2020/05/03 14:07:00;;;;;;;1.8;0.7;;;;;;;17.74;37.8877;938.7609;;;;
2020/05/03 14:09:25;;;;;;;2.2;0.9;;;;;;;17.77;37.28711;938.7256;;;;
2020/05/03 14:11:53;;;;;;;1.9;0.9;;;;;;;17.68;36.93066;938.6838;;;;
2020/05/03 14:14:18;;;;;;;2.9;0.7;;;;;;;17.61;37.33105;938.6802;;;;
2020/05/03 14:16:44;;;;;;;1.6;0.8;;;;;;;17.61;37.13379;938.6378;;;;
2020/05/03 14:19:10;;;;;;;2.5;0.9;;;;;;;17.59;36.87695;938.6211;;;;
2020/05/03 14:21:36;;;;;;;2.5;1.3;;;;;;;17.55;36.62988;938.6507;;;;
2020/05/03 14:24:01;;;;;;;2.2;1.1;;;;;;;17.56;36.46777;938.6096;;;;
2020/05/03 14:26:28;;;;;;;2.2;0.7;;;;;;;17.41;39.20508;938.5972;;;;
2020/05/03 14:28:53;;;;;;;2.2;0.7;;;;;;;17.3;38.5;938.5901;;;;
2020/05/03 14:31:20;;;;;;;2;0.6;;;;;;;17.15;38.72949;938.585;;;;
2020/05/03 14:33:45;;;;;;;2.5;0.8;;;;;;;17.09;40.69336;938.5481;;;;
2020/05/03 14:36:13;;;;;;;1.5;0.6;;;;;;;17.11;39.23535;938.5638;;;;
2020/05/03 14:38:50;;;;;;;1.7;0.7;;;;;;;17.1;38.96875;938.5753;;;;
2020/05/03 14:41:04;;;;;;;2.6;0.8;;;;;;;17.14;40.25879;938.5569;;;;
2020/05/03 14:43:30;;;;;;;2.3;0.7;;;;;;;17.14;39.4248;938.528;;;;
2020/05/03 14:45:57;;;;;;;1.6;0.7;;;;;;;17.17;39.27734;938.4977;;;;
2020/05/03 14:48:22;;;;;;;2.4;0.7;;;;;;;17.11;40.95117;938.5856;;;;
2020/05/03 14:50:49;;;;;;;1.4;0.7;;;;;;;17.11;40.31348;938.5606;;;;
2020/05/03 14:53:14;;;;;;;1.2;0.7;;;;;;;17.09;39.75586;938.5295;;;;
2020/05/03 14:55:41;;;;;;;1.1;0.6;;;;;;;17.07;41.22559;938.5041;;;;
2020/05/03 14:58:06;;;;;;;1.3;0.6;;;;;;;17.02;40.62988;938.5126;;;;
2020/05/03 15:00:31;;;;;;;3.2;0.7;;;;;;;17.01;41.30176;938.4684;;;;
2020/05/03 15:02:56;;;;;;;1.1;0.6;;;;;;;17.01;42.59863;938.5064;;;;
2020/05/03 15:05:23;;;;;;;1.5;0.6;;;;;;;17.16;42.12598;938.4634;;;;
2020/05/03 15:07:48;;;;;;;2.6;0.7;;;;;;;17.21;41.52832;938.4512;;;;
2020/05/03 15:10:15;;;;;;;2.6;0.7;;;;;;;17.18;42.20996;938.483;;;;
2020/05/03 15:12:40;;;;;;;2.3;0.7;;;;;;;17.12;39.64258;938.4543;;;;
2020/05/03 15:15:08;;;;;;;1;0.5;;;;;;;17.09;39.22363;938.4749;;;;
2020/05/03 15:17:33;;;;;;;1.8;0.6;;;;;;;17.04;40.0293;938.4902;;;;
2020/05/03 15:19:59;;;;;;;2.6;0.7;;;;;;;16.74;40.83594;938.444;;;;
2020/05/03 15:22:25;;;;;;;2.2;0.7;;;;;;;16.8;41.65234;938.4327;;;;
2020/05/03 15:24:54;;;;;;;2.1;0.8;;;;;;;16.87;40.91797;938.4763;;;;
2020/05/03 15:27:19;;;;;;;2.5;1;;;;;;;16.91;41.16406;938.4813;;;;
2020/05/03 15:29:45;;;;;;;2.7;0.7;;;;;;;16.82;40.7627;938.4777;;;;
2020/05/03 15:32:10;;;;;;;1.7;0.8;;;;;;;16.81;40.37891;938.4213;;;;
2020/05/03 15:34:35;;;;;;;2.7;0.9;;;;;;;16.9;41.10547;938.4026;;;;
2020/05/03 15:37:01;;;;;;;3.7;1;;;;;;;16.86;39.31836;938.5165;;;;
2020/05/03 15:39:26;;;;;;;3;1.1;;;;;;;16.78;40.19043;938.5577;;;;
2020/05/03 15:41:52;;;;;;;3;1.3;;;;;;;16.76;39.7959;938.4589;;;;
2020/05/03 15:44:18;;;;;;;2;0.9;;;;;;;16.62;39.73633;938.467;;;;
2020/05/03 15:46:44;;;;;;;3.1;0.8;;;;;;;16.5;40.65137;938.4731;;;;
2020/05/03 15:49:09;;;;;;;3.9;0.9;;;;;;;16.43;40.33203;938.4081;;;;
2020/05/03 15:51:34;;;;;;;6.1;0.9;;;;;;;16.38;40.16602;938.48;;;;
2020/05/03 15:53:59;;;;;;;2;0.7;;;;;;;16.11;40.12988;938.4275;;;;
2020/05/03 15:56:25;;;;;;;2.7;0.8;;;;;;;16.19;40.39063;938.4411;;;;